createdAt,value
2019-01-19T00:00:39.163Z,8.00
2019-01-19T00:01:39.251Z,8.00
2019-01-19T00:02:39.294Z,8.00
2019-01-19T00:03:39.312Z,8.00
2019-01-19T00:04:39.364Z,8.00
2019-01-19T00:05:39.403Z,8.00
2019-01-19T00:06:39.499Z,8.00
2019-01-19T00:07:39.507Z,8.00
2019-01-19T00:08:39.535Z,4.00
2019-01-19T00:09:39.582Z,8.00
2019-01-19T00:10:39.627Z,4.00
2019-01-19T00:11:39.693Z,8.00
2019-01-19T00:12:39.780Z,4.00
2019-01-19T00:13:39.766Z,4.00
2019-01-19T00:14:39.849Z,4.00
2019-01-19T00:15:39.875Z,4.00
2019-01-19T00:16:39.946Z,4.00
2019-01-19T00:17:39.983Z,4.00
2019-01-19T00:18:40.048Z,4.00
2019-01-19T00:19:40.070Z,4.00
2019-01-19T00:20:40.129Z,4.00
2019-01-19T00:21:40.178Z,4.00
2019-01-19T00:22:40.240Z,4.00
2019-01-19T00:23:40.259Z,4.00
2019-01-19T00:24:40.369Z,4.00
2019-01-19T00:25:40.403Z,4.00
2019-01-19T00:26:40.415Z,4.00
2019-01-19T00:27:40.483Z,4.00
2019-01-19T00:28:40.514Z,4.00
2019-01-19T00:29:40.586Z,4.00
2019-01-19T00:30:40.635Z,4.00
2019-01-19T00:31:40.695Z,4.00
2019-01-19T00:32:40.719Z,4.00
2019-01-19T00:33:40.751Z,4.00
2019-01-19T00:34:40.814Z,4.00
2019-01-19T00:35:40.854Z,4.00
2019-01-19T00:36:40.948Z,4.00
2019-01-19T00:37:40.971Z,4.00
2019-01-19T00:38:41.019Z,4.00
2019-01-19T00:39:41.068Z,4.00
2019-01-19T00:40:41.109Z,4.00
2019-01-19T00:41:41.148Z,4.00
2019-01-19T00:42:41.211Z,4.00
2019-01-19T00:43:41.240Z,8.00
2019-01-19T00:44:41.298Z,8.00
2019-01-19T00:45:41.361Z,4.00
2019-01-19T00:46:41.391Z,8.00
2019-01-19T00:47:41.455Z,8.00
2019-01-19T00:48:41.553Z,8.00
2019-01-19T00:49:41.540Z,8.00
2019-01-19T00:50:41.621Z,8.00
2019-01-19T00:51:41.703Z,8.00
2019-01-19T00:52:41.741Z,8.00
2019-01-19T00:53:41.737Z,8.00
2019-01-19T00:54:41.782Z,8.00
2019-01-19T00:55:41.856Z,8.00
2019-01-19T00:56:41.884Z,8.00
2019-01-19T00:57:41.957Z,8.00
2019-01-19T00:58:42.029Z,8.00
2019-01-19T00:59:42.040Z,8.00
2019-01-19T01:00:42.063Z,8.00
2019-01-19T01:01:42.158Z,8.00
2019-01-19T01:02:42.207Z,8.00
2019-01-19T01:03:42.227Z,8.00
2019-01-19T01:04:42.278Z,8.00
2019-01-19T01:05:42.349Z,8.00
2019-01-19T01:06:42.430Z,8.00
2019-01-19T01:07:42.426Z,8.00
2019-01-19T01:08:42.463Z,8.00
2019-01-19T01:09:42.510Z,8.00
2019-01-19T01:10:42.555Z,8.00
2019-01-19T01:11:42.625Z,8.00
2019-01-19T01:12:42.677Z,4.00
2019-01-19T01:13:42.720Z,4.00
2019-01-19T01:14:42.765Z,4.00
2019-01-19T01:15:42.815Z,4.00
2019-01-19T01:16:42.863Z,4.00
2019-01-19T01:17:42.914Z,4.00
2019-01-19T01:18:42.956Z,4.00
2019-01-19T01:19:43.014Z,4.00
2019-01-19T01:20:43.051Z,4.00
2019-01-19T01:21:43.097Z,4.00
2019-01-19T01:22:43.148Z,4.00
2019-01-19T01:23:43.201Z,4.00
2019-01-19T01:24:43.258Z,4.00
2019-01-19T01:25:43.293Z,4.00
2019-01-19T01:26:43.335Z,4.00
2019-01-19T01:27:43.368Z,4.00
2019-01-19T01:28:43.434Z,4.00
2019-01-19T01:29:43.498Z,4.00
2019-01-19T01:30:43.539Z,4.00
2019-01-19T01:31:43.583Z,4.00
2019-01-19T01:32:43.669Z,4.00
2019-01-19T01:33:43.687Z,4.00
2019-01-19T01:34:43.721Z,4.00
2019-01-19T01:35:43.809Z,4.00
2019-01-19T01:36:43.860Z,4.00
2019-01-19T01:37:43.870Z,4.00
2019-01-19T01:38:43.934Z,4.00
2019-01-19T01:39:43.974Z,4.00
2019-01-19T01:40:44.026Z,4.00
2019-01-19T01:41:44.092Z,4.00
2019-01-19T01:42:44.115Z,4.00
2019-01-19T01:43:44.196Z,4.00
2019-01-19T01:44:44.233Z,4.00
2019-01-19T01:45:44.272Z,4.00
2019-01-19T01:46:44.349Z,4.00
2019-01-19T01:47:44.369Z,4.00
2019-01-19T01:48:44.405Z,4.00
2019-01-19T01:49:44.446Z,4.00
2019-01-19T01:50:44.506Z,4.00
2019-01-19T01:51:44.554Z,0.00
2019-01-19T01:52:44.627Z,0.00
2019-01-19T01:53:44.654Z,0.00
2019-01-19T01:54:44.734Z,0.00
2019-01-19T01:55:44.765Z,0.00
2019-01-19T01:56:44.805Z,0.00
2019-01-19T01:57:44.863Z,0.00
2019-01-19T01:58:44.909Z,0.00
2019-01-19T01:59:44.954Z,0.00
2019-01-19T02:00:45.020Z,0.00
2019-01-19T02:01:45.040Z,0.00
2019-01-19T02:02:45.083Z,0.00
2019-01-19T02:03:45.131Z,0.00
2019-01-19T02:04:45.189Z,0.00
2019-01-19T02:05:45.221Z,0.00
2019-01-19T02:06:45.296Z,0.00
2019-01-19T02:07:45.330Z,0.00
2019-01-19T02:08:45.390Z,0.00
2019-01-19T02:09:45.416Z,0.00
2019-01-19T02:10:45.487Z,0.00
2019-01-19T02:11:45.529Z,0.00
2019-01-19T02:12:45.580Z,0.00
2019-01-19T02:13:45.621Z,0.00
2019-01-19T02:14:45.662Z,0.00
2019-01-19T02:15:45.724Z,0.00
2019-01-19T02:16:45.770Z,0.00
2019-01-19T02:17:45.823Z,0.00
2019-01-19T02:18:45.876Z,0.00
2019-01-19T02:19:45.958Z,0.00
2019-01-19T02:20:45.974Z,0.00
2019-01-19T02:21:46.022Z,0.00
2019-01-19T02:22:46.105Z,0.00
2019-01-19T02:23:46.110Z,0.00
2019-01-19T02:24:46.138Z,0.00
2019-01-19T02:25:46.226Z,0.00
2019-01-19T02:26:46.263Z,0.00
2019-01-19T02:27:46.341Z,0.00
2019-01-19T02:28:46.356Z,0.00
2019-01-19T02:29:46.385Z,0.00
2019-01-19T02:30:46.433Z,0.00
2019-01-19T02:31:46.507Z,0.00
2019-01-19T02:32:46.551Z,0.00
2019-01-19T02:33:46.623Z,0.00
2019-01-19T02:34:46.658Z,0.00
2019-01-19T02:35:48.507Z,0.00
2019-01-19T02:36:46.739Z,0.00
2019-01-19T02:37:46.788Z,0.00
2019-01-19T02:38:46.842Z,0.00
2019-01-19T02:39:46.867Z,0.00
2019-01-19T02:40:46.930Z,0.00
2019-01-19T02:41:46.982Z,0.00
2019-01-19T02:42:47.023Z,0.00
2019-01-19T02:43:47.068Z,0.00
2019-01-19T02:44:47.115Z,0.00
2019-01-19T02:45:47.181Z,0.00
2019-01-19T02:46:47.213Z,0.00
2019-01-19T02:47:47.265Z,0.00
2019-01-19T02:48:47.323Z,0.00
2019-01-19T02:49:47.604Z,0.00
2019-01-19T02:50:47.458Z,0.00
2019-01-19T02:51:47.503Z,0.00
2019-01-19T02:52:47.596Z,0.00
2019-01-19T02:53:47.526Z,0.00
2019-01-19T02:54:47.611Z,0.00
2019-01-19T02:55:47.638Z,0.00
2019-01-19T02:56:47.703Z,0.00
2019-01-19T02:57:47.753Z,0.00
2019-01-19T02:58:47.793Z,0.00
2019-01-19T02:59:47.842Z,0.00
2019-01-19T03:00:47.944Z,0.00
2019-01-19T03:01:47.947Z,0.00
2019-01-19T03:02:48.039Z,0.00
2019-01-19T03:03:48.024Z,0.00
2019-01-19T03:04:48.123Z,0.00
2019-01-19T03:05:48.119Z,0.00
2019-01-19T03:06:48.175Z,0.00
2019-01-19T03:07:48.228Z,0.00
2019-01-19T03:08:48.263Z,0.00
2019-01-19T03:09:50.056Z,0.00
2019-01-19T03:10:48.367Z,0.00
2019-01-19T03:11:48.440Z,0.00
2019-01-19T03:12:48.441Z,0.00
2019-01-19T03:13:48.503Z,0.00
2019-01-19T03:14:48.574Z,0.00
2019-01-19T03:15:48.580Z,0.00
2019-01-19T03:16:48.654Z,0.00
2019-01-19T03:17:48.696Z,0.00
2019-01-19T03:18:48.866Z,0.00
2019-01-19T03:19:48.784Z,0.00
2019-01-19T03:20:48.847Z,0.00
2019-01-19T03:21:48.900Z,0.00
2019-01-19T03:22:48.934Z,0.00
2019-01-19T03:23:49.001Z,0.00
2019-01-19T03:24:49.076Z,0.00
2019-01-19T03:25:49.102Z,0.00
2019-01-19T03:26:49.194Z,0.00
2019-01-19T03:27:49.194Z,0.00
2019-01-19T03:28:49.290Z,0.00
2019-01-19T03:29:49.283Z,0.00
2019-01-19T03:30:49.301Z,0.00
2019-01-19T03:31:49.368Z,0.00
2019-01-19T03:32:49.441Z,0.00
2019-01-19T03:33:49.481Z,0.00
2019-01-19T03:34:49.525Z,0.00
2019-01-19T03:35:49.573Z,0.00
2019-01-19T03:36:49.608Z,0.00
2019-01-19T03:37:49.663Z,0.00
2019-01-19T03:38:49.715Z,0.00
2019-01-19T03:39:49.747Z,0.00
2019-01-19T03:40:49.843Z,0.00
2019-01-19T03:41:49.835Z,0.00
2019-01-19T03:42:49.895Z,0.00
2019-01-19T03:43:49.953Z,0.00
2019-01-19T03:44:49.981Z,0.00
2019-01-19T03:45:50.021Z,0.00
2019-01-19T03:46:50.104Z,0.00
2019-01-19T03:47:50.124Z,0.00
2019-01-19T03:48:50.166Z,0.00
2019-01-19T03:49:50.214Z,0.00
2019-01-19T03:50:50.277Z,0.00
2019-01-19T03:51:50.325Z,0.00
2019-01-19T03:52:50.361Z,0.00
2019-01-19T03:53:50.422Z,0.00
2019-01-19T03:54:50.481Z,0.00
2019-01-19T03:55:50.507Z,0.00
2019-01-19T03:56:50.571Z,0.00
2019-01-19T03:57:50.621Z,0.00
2019-01-19T03:58:50.668Z,0.00
2019-01-19T03:59:50.684Z,0.00
2019-01-19T04:00:50.760Z,0.00
2019-01-19T04:01:50.841Z,0.00
2019-01-19T04:02:50.861Z,0.00
2019-01-19T04:03:50.900Z,0.00
2019-01-19T04:04:50.979Z,0.00
2019-01-19T04:05:50.979Z,0.00
2019-01-19T04:06:51.035Z,0.00
2019-01-19T04:07:51.092Z,0.00
2019-01-19T04:08:51.137Z,0.00
2019-01-19T04:09:51.182Z,0.00
2019-01-19T04:10:51.225Z,0.00
2019-01-19T04:11:51.280Z,0.00
2019-01-19T04:12:51.337Z,0.00
2019-01-19T04:13:51.360Z,0.00
2019-01-19T04:14:51.424Z,0.00
2019-01-19T04:15:51.483Z,0.00
2019-01-19T04:16:51.517Z,0.00
2019-01-19T04:17:51.551Z,0.00
2019-01-19T04:18:51.620Z,0.00
2019-01-19T04:19:51.669Z,0.00
2019-01-19T04:20:51.711Z,0.00
2019-01-19T04:21:51.747Z,0.00
2019-01-19T04:22:51.793Z,0.00
2019-01-19T04:23:51.861Z,0.00
2019-01-19T04:24:51.893Z,0.00
2019-01-19T04:25:51.931Z,0.00
2019-01-19T04:26:51.987Z,0.00
2019-01-19T04:27:52.054Z,0.00
2019-01-19T04:28:52.095Z,0.00
2019-01-19T04:29:52.129Z,0.00
2019-01-19T04:30:52.169Z,0.00
2019-01-19T04:31:52.244Z,0.00
2019-01-19T04:32:52.287Z,0.00
2019-01-19T04:33:52.319Z,0.00
2019-01-19T04:34:52.367Z,0.00
2019-01-19T04:35:52.424Z,0.00
2019-01-19T04:36:52.509Z,0.00
2019-01-19T04:37:52.532Z,0.00
2019-01-19T04:38:52.576Z,0.00
2019-01-19T04:39:52.605Z,0.00
2019-01-19T04:40:52.684Z,0.00
2019-01-19T04:41:52.722Z,0.00
2019-01-19T04:42:52.740Z,0.00
2019-01-19T04:43:52.843Z,0.00
2019-01-19T04:44:52.867Z,0.00
2019-01-19T04:45:52.916Z,0.00
2019-01-19T04:46:52.952Z,0.00
2019-01-19T04:47:53.008Z,0.00
2019-01-19T04:48:53.064Z,0.00
2019-01-19T04:49:53.104Z,0.00
2019-01-19T04:50:53.119Z,0.00
2019-01-19T04:51:53.178Z,0.00
2019-01-19T04:52:53.286Z,0.00
2019-01-19T04:53:53.271Z,0.00
2019-01-19T04:54:53.340Z,0.00
2019-01-19T04:55:53.380Z,0.00
2019-01-19T04:56:53.409Z,0.00
2019-01-19T04:57:53.483Z,0.00
2019-01-19T04:58:53.533Z,0.00
2019-01-19T04:59:53.568Z,0.00
2019-01-19T05:00:53.651Z,0.00
2019-01-19T05:01:53.674Z,0.00
2019-01-19T05:02:53.701Z,0.00
2019-01-19T05:03:53.883Z,0.00
2019-01-19T05:04:53.816Z,0.00
2019-01-19T05:05:53.856Z,0.00
2019-01-19T05:06:53.922Z,0.00
2019-01-19T05:07:53.954Z,0.00
2019-01-19T05:08:54.011Z,0.00
2019-01-19T05:09:54.021Z,0.00
2019-01-19T05:10:54.125Z,0.00
2019-01-19T05:11:54.122Z,0.00
2019-01-19T05:12:54.199Z,0.00
2019-01-19T05:13:54.219Z,0.00
2019-01-19T05:14:54.295Z,0.00
2019-01-19T05:15:54.342Z,0.00
2019-01-19T05:16:54.384Z,0.00
2019-01-19T05:17:55.402Z,0.00
2019-01-19T05:18:54.465Z,0.00
2019-01-19T05:19:54.535Z,0.00
2019-01-19T05:20:54.591Z,0.00
2019-01-19T05:21:54.689Z,0.00
2019-01-19T05:22:54.669Z,0.00
2019-01-19T05:23:54.730Z,0.00
2019-01-19T05:24:54.754Z,0.00
2019-01-19T05:25:54.967Z,0.00
2019-01-19T05:26:54.863Z,0.00
2019-01-19T05:27:54.905Z,0.00
2019-01-19T05:28:54.949Z,0.00
2019-01-19T05:29:55.006Z,0.00
2019-01-19T05:30:55.031Z,0.00
2019-01-19T05:31:55.103Z,0.00
2019-01-19T05:32:55.186Z,0.00
2019-01-19T05:33:55.179Z,0.00
2019-01-19T05:34:55.279Z,0.00
2019-01-19T05:35:55.311Z,0.00
2019-01-19T05:36:55.331Z,0.00
2019-01-19T05:37:55.393Z,0.00
2019-01-19T05:38:55.420Z,0.00
2019-01-19T05:39:55.490Z,0.00
2019-01-19T05:40:55.511Z,0.00
2019-01-19T05:41:55.566Z,0.00
2019-01-19T05:42:55.639Z,0.00
2019-01-19T05:43:55.700Z,0.00
2019-01-19T05:44:55.835Z,0.00
2019-01-19T05:45:55.815Z,0.00
2019-01-19T05:46:55.817Z,0.00
2019-01-19T05:47:55.886Z,0.00
2019-01-19T05:48:55.923Z,0.00
2019-01-19T05:49:55.976Z,0.00
2019-01-19T05:50:56.002Z,0.00
2019-01-19T05:51:56.451Z,0.00
2019-01-19T05:52:56.091Z,0.00
2019-01-19T05:53:56.145Z,0.00
2019-01-19T05:54:56.201Z,0.00
2019-01-19T05:55:56.241Z,0.00
2019-01-19T05:56:56.344Z,0.00
2019-01-19T05:57:56.361Z,0.00
2019-01-19T05:58:56.403Z,0.00
2019-01-19T05:59:56.458Z,0.00
2019-01-19T06:00:56.479Z,0.00
2019-01-19T06:01:56.542Z,0.00
2019-01-19T06:02:56.576Z,0.00
2019-01-19T06:03:56.630Z,0.00
2019-01-19T06:04:56.684Z,0.00
2019-01-19T06:05:56.720Z,0.00
2019-01-19T06:06:56.917Z,0.00
2019-01-19T06:07:56.831Z,0.00
2019-01-19T06:08:56.928Z,0.00
2019-01-19T06:09:56.907Z,0.00
2019-01-19T06:10:56.971Z,0.00
2019-01-19T06:11:57.014Z,0.00
2019-01-19T06:12:57.080Z,0.00
2019-01-19T06:13:57.100Z,0.00
2019-01-19T06:14:57.148Z,0.00
2019-01-19T06:15:57.211Z,0.00
2019-01-19T06:16:57.251Z,0.00
2019-01-19T06:17:57.316Z,0.00
2019-01-19T06:18:57.367Z,0.00
2019-01-19T06:19:57.390Z,0.00
2019-01-19T06:20:57.448Z,0.00
2019-01-19T06:21:57.486Z,0.00
2019-01-19T06:22:57.551Z,0.00
2019-01-19T06:23:57.606Z,0.00
2019-01-19T06:24:57.647Z,0.00
2019-01-19T06:25:57.723Z,0.00
2019-01-19T06:26:57.745Z,0.00
2019-01-19T06:27:57.835Z,0.00
2019-01-19T06:28:57.824Z,0.00
2019-01-19T06:29:57.875Z,0.00
2019-01-19T06:30:57.920Z,0.00
2019-01-19T06:31:57.970Z,0.00
2019-01-19T06:32:58.013Z,0.00
2019-01-19T06:33:58.066Z,0.00
2019-01-19T06:34:58.180Z,0.00
2019-01-19T06:35:58.254Z,0.00
2019-01-19T06:36:58.192Z,0.00
2019-01-19T06:37:58.243Z,0.00
2019-01-19T06:38:58.295Z,0.00
2019-01-19T06:39:58.352Z,0.00
2019-01-19T06:40:58.402Z,0.00
2019-01-19T06:41:58.444Z,0.00
2019-01-19T06:42:58.496Z,0.00
2019-01-19T06:43:58.545Z,0.00
2019-01-19T06:44:58.581Z,0.00
2019-01-19T06:45:58.647Z,0.00
2019-01-19T06:46:58.836Z,0.00
2019-01-19T06:47:58.752Z,0.00
2019-01-19T06:48:58.788Z,0.00
2019-01-19T06:49:58.829Z,0.00
2019-01-19T06:50:58.875Z,0.00
2019-01-19T06:51:58.937Z,0.00
2019-01-19T06:52:58.977Z,0.00
2019-01-19T06:54:01.753Z,0.00
2019-01-19T06:54:59.067Z,0.00
2019-01-19T06:55:59.119Z,0.00
2019-01-19T06:56:59.187Z,0.00
2019-01-19T06:57:59.326Z,0.00
2019-01-19T06:58:59.267Z,0.00
2019-01-19T06:59:59.284Z,0.00
2019-01-19T07:00:59.360Z,0.00
2019-01-19T07:01:59.398Z,0.00
2019-01-19T07:02:59.446Z,0.00
2019-01-19T07:03:59.496Z,0.00
2019-01-19T07:04:59.538Z,0.00
2019-01-19T07:05:59.575Z,0.00
2019-01-19T07:07:02.817Z,0.00
2019-01-19T07:07:59.704Z,0.00
2019-01-19T07:08:59.776Z,0.00
2019-01-19T07:09:59.788Z,0.00
2019-01-19T07:10:59.867Z,0.00
2019-01-19T07:11:59.890Z,0.00
2019-01-19T07:13:00.027Z,0.00
2019-01-19T07:13:59.969Z,0.00
2019-01-19T07:15:00.017Z,0.00
2019-01-19T07:16:00.059Z,0.00
2019-01-19T07:17:00.128Z,0.00
2019-01-19T07:18:00.186Z,0.00
2019-01-19T07:19:00.247Z,0.00
2019-01-19T07:20:00.338Z,0.00
2019-01-19T07:21:00.333Z,0.00
2019-01-19T07:22:00.347Z,0.00
2019-01-19T07:23:00.373Z,0.00
2019-01-19T07:24:00.445Z,0.00
2019-01-19T07:25:00.504Z,0.00
2019-01-19T07:26:00.529Z,0.00
2019-01-19T07:27:00.587Z,0.00
2019-01-19T07:28:00.605Z,0.00
2019-01-19T07:29:00.674Z,0.00
2019-01-19T07:30:00.732Z,0.00
2019-01-19T07:31:00.758Z,0.00
2019-01-19T07:32:00.824Z,0.00
2019-01-19T07:33:00.844Z,0.00
2019-01-19T07:34:00.997Z,0.00
2019-01-19T07:35:00.957Z,0.00
2019-01-19T07:36:01.004Z,0.00
2019-01-19T07:37:01.996Z,0.00
2019-01-19T07:38:01.095Z,0.00
2019-01-19T07:39:01.205Z,0.00
2019-01-19T07:40:01.210Z,0.00
2019-01-19T07:41:01.233Z,0.00
2019-01-19T07:42:01.297Z,0.00
2019-01-19T07:43:01.313Z,0.00
2019-01-19T07:44:01.375Z,0.00
2019-01-19T07:45:01.499Z,0.00
2019-01-19T07:46:01.492Z,0.00
2019-01-19T07:47:01.527Z,0.00
2019-01-19T07:48:01.556Z,0.00
2019-01-19T07:49:01.656Z,0.00
2019-01-19T07:50:01.658Z,0.00
2019-01-19T07:51:01.722Z,0.00
2019-01-19T07:52:01.758Z,0.00
2019-01-19T07:53:01.793Z,0.00
2019-01-19T07:54:01.860Z,0.00
2019-01-19T07:55:01.996Z,0.00
2019-01-19T07:56:01.955Z,0.00
2019-01-19T07:57:02.023Z,0.00
2019-01-19T07:58:02.046Z,0.00
2019-01-19T07:59:02.100Z,0.00
2019-01-19T08:00:02.156Z,0.00
2019-01-19T08:01:02.183Z,0.00
2019-01-19T08:02:02.520Z,0.00
2019-01-19T08:03:02.263Z,0.00
2019-01-19T08:04:02.317Z,0.00
2019-01-19T08:05:02.352Z,0.00
2019-01-19T08:06:02.378Z,0.00
2019-01-19T08:07:02.447Z,0.00
2019-01-19T08:08:02.493Z,0.00
2019-01-19T08:09:02.559Z,0.00
2019-01-19T08:10:02.612Z,0.00
2019-01-19T08:11:02.632Z,4.00
2019-01-19T08:12:02.695Z,0.00
2019-01-19T08:13:02.717Z,4.00
2019-01-19T08:14:02.787Z,0.00
2019-01-19T08:15:02.812Z,4.00
2019-01-19T08:16:02.886Z,4.00
2019-01-19T08:17:02.914Z,8.00
2019-01-19T08:18:02.968Z,8.00
2019-01-19T08:19:03.179Z,12.00
2019-01-19T08:20:03.075Z,12.00
2019-01-19T08:21:03.086Z,20.00
2019-01-19T08:22:03.166Z,24.00
2019-01-19T08:23:03.200Z,28.00
2019-01-19T08:24:03.249Z,36.00
2019-01-19T08:25:03.293Z,48.00
2019-01-19T08:26:03.399Z,60.00
2019-01-19T08:27:03.412Z,76.00
2019-01-19T08:28:03.432Z,96.00
2019-01-19T08:29:03.561Z,116.00
2019-01-19T08:30:03.567Z,140.00
2019-01-19T08:31:03.580Z,164.00
2019-01-19T08:32:03.632Z,184.00
2019-01-19T08:33:03.681Z,196.00
2019-01-19T08:34:03.719Z,208.00
2019-01-19T08:35:03.781Z,228.00
2019-01-19T08:36:03.831Z,248.00
2019-01-19T08:37:03.862Z,280.00
2019-01-19T08:38:03.899Z,312.00
2019-01-19T08:39:03.998Z,356.00
2019-01-19T08:40:04.004Z,388.00
2019-01-19T08:41:04.048Z,428.00
2019-01-19T08:42:04.080Z,484.00
2019-01-19T08:43:04.133Z,548.00
2019-01-19T08:44:04.191Z,612.00
2019-01-19T08:45:04.249Z,684.00
2019-01-19T08:46:04.278Z,764.00
2019-01-19T08:47:04.338Z,860.00
2019-01-19T08:48:04.392Z,988.00
2019-01-19T08:49:04.444Z,1112.00
2019-01-19T08:50:04.473Z,1220.00
2019-01-19T08:51:04.514Z,1336.00
2019-01-19T08:52:04.575Z,1464.00
2019-01-19T08:53:04.713Z,1588.00
2019-01-19T08:54:04.656Z,1712.00
2019-01-19T08:55:04.707Z,1852.00
2019-01-19T08:56:04.772Z,2000.00
2019-01-19T08:57:04.821Z,2156.00
2019-01-19T08:58:04.890Z,2300.00
2019-01-19T08:59:04.941Z,2448.00
2019-01-19T09:00:04.943Z,2600.00
2019-01-19T09:01:05.003Z,2740.00
2019-01-19T09:02:05.050Z,2872.00
2019-01-19T09:03:05.100Z,3020.00
2019-01-19T09:04:05.140Z,3168.00
2019-01-19T09:05:05.186Z,3308.00
2019-01-19T09:06:05.213Z,3472.00
2019-01-19T09:07:05.299Z,3672.00
2019-01-19T09:08:05.372Z,3904.00
2019-01-19T09:09:05.350Z,4148.00
2019-01-19T09:10:05.467Z,4384.00
2019-01-19T09:11:05.463Z,4604.00
2019-01-19T09:12:05.653Z,4824.00
2019-01-19T09:13:05.572Z,5024.00
2019-01-19T09:14:05.648Z,5232.00
2019-01-19T09:15:05.672Z,5440.00
2019-01-19T09:16:05.692Z,5660.00
2019-01-19T09:17:05.759Z,5880.00
2019-01-19T09:18:05.866Z,6100.00
2019-01-19T09:19:05.827Z,6308.00
2019-01-19T09:20:05.884Z,6516.00
2019-01-19T09:21:05.943Z,6716.00
2019-01-19T09:22:05.995Z,6936.00
2019-01-19T09:23:06.038Z,7176.00
2019-01-19T09:24:06.071Z,7416.00
2019-01-19T09:25:06.148Z,7648.00
2019-01-19T09:26:06.179Z,7868.00
2019-01-19T09:27:06.223Z,8096.00
2019-01-19T09:28:06.287Z,8312.00
2019-01-19T09:29:06.317Z,8500.00
2019-01-19T09:30:06.382Z,8684.00
2019-01-19T09:31:06.422Z,8884.00
2019-01-19T09:32:06.480Z,9032.00
2019-01-19T09:33:06.522Z,9112.00
2019-01-19T09:34:06.563Z,9184.00
2019-01-19T09:35:06.623Z,9280.00
2019-01-19T09:36:06.699Z,9372.00
2019-01-19T09:37:06.722Z,9468.00
2019-01-19T09:38:06.752Z,9596.00
2019-01-19T09:39:06.834Z,9776.00
2019-01-19T09:40:06.957Z,9936.00
2019-01-19T09:41:06.916Z,10124.00
2019-01-19T09:42:06.965Z,10272.00
2019-01-19T09:43:07.000Z,10380.00
2019-01-19T09:44:07.046Z,10500.00
2019-01-19T09:45:07.106Z,10600.00
2019-01-19T09:46:07.163Z,10788.00
2019-01-19T09:47:07.221Z,11152.00
2019-01-19T09:48:07.250Z,11536.00
2019-01-19T09:49:07.295Z,11776.00
2019-01-19T09:50:07.363Z,11824.00
2019-01-19T09:51:07.421Z,11680.00
2019-01-19T09:52:07.460Z,11496.00
2019-01-19T09:53:07.515Z,11684.00
2019-01-19T09:54:07.562Z,12248.00
2019-01-19T09:55:07.607Z,13088.00
2019-01-19T09:56:07.658Z,13608.00
2019-01-19T09:57:07.694Z,14296.00
2019-01-19T09:58:07.736Z,16200.00
2019-01-19T09:59:07.796Z,17568.00
2019-01-19T10:00:07.891Z,14316.00
2019-01-19T10:01:07.891Z,13012.00
2019-01-19T10:02:07.932Z,14016.00
2019-01-19T10:03:08.017Z,17016.00
2019-01-19T10:04:08.059Z,25312.00
2019-01-19T10:05:08.104Z,40000.00
2019-01-19T10:06:08.173Z,56352.00
2019-01-19T10:07:08.181Z,62528.00
2019-01-19T10:08:08.251Z,64992.00
2019-01-19T10:09:08.297Z,66272.00
2019-01-19T10:10:08.363Z,68672.00
2019-01-19T10:11:08.402Z,67968.00
2019-01-19T10:12:08.448Z,59520.00
2019-01-19T10:13:08.517Z,40352.00
2019-01-19T10:14:08.606Z,25184.00
2019-01-19T10:15:08.653Z,37760.00
2019-01-19T10:16:08.830Z,51296.00
2019-01-19T10:17:08.759Z,62400.00
2019-01-19T10:18:08.772Z,68032.00
2019-01-19T10:19:08.834Z,67840.00
2019-01-19T10:20:08.886Z,68832.00
2019-01-19T10:21:08.940Z,70656.00
2019-01-19T10:22:08.974Z,72192.00
2019-01-19T10:23:09.028Z,71520.00
2019-01-19T10:24:09.135Z,71392.00
2019-01-19T10:25:09.150Z,72832.00
2019-01-19T10:26:09.242Z,66656.00
2019-01-19T10:27:09.258Z,45472.00
2019-01-19T10:28:09.298Z,35968.00
2019-01-19T10:29:09.410Z,26272.00
2019-01-19T10:30:09.422Z,25696.00
2019-01-19T10:31:09.484Z,50848.00
2019-01-19T10:32:09.551Z,57920.00
2019-01-19T10:33:09.575Z,72672.00
2019-01-19T10:34:09.682Z,73056.00
2019-01-19T10:35:09.691Z,72384.00
2019-01-19T10:36:09.738Z,72096.00
2019-01-19T10:37:09.797Z,73632.00
2019-01-19T10:38:09.856Z,74912.00
2019-01-19T10:39:09.915Z,73984.00
2019-01-19T10:40:09.976Z,71072.00
2019-01-19T10:41:10.046Z,68512.00
2019-01-19T10:42:10.099Z,70528.00
2019-01-19T10:43:10.151Z,70912.00
2019-01-19T10:44:10.251Z,73440.00
2019-01-19T10:45:10.243Z,75296.00
2019-01-19T10:46:10.333Z,77248.00
2019-01-19T10:47:10.383Z,78816.00
2019-01-19T10:48:10.435Z,78880.00
2019-01-19T10:49:10.515Z,74944.00
2019-01-19T10:50:10.544Z,73312.00
2019-01-19T10:51:10.613Z,75008.00
2019-01-19T10:52:10.682Z,75936.00
2019-01-19T10:53:10.729Z,76512.00
2019-01-19T10:54:10.776Z,76768.00
2019-01-19T10:55:10.853Z,76160.00
2019-01-19T10:56:10.911Z,75360.00
2019-01-19T10:57:11.002Z,77792.00
2019-01-19T10:58:11.027Z,82592.00
2019-01-19T10:59:11.068Z,79936.00
2019-01-19T11:00:11.145Z,78080.00
2019-01-19T11:01:11.193Z,77664.00
2019-01-19T11:02:11.229Z,79136.00
2019-01-19T11:03:11.318Z,82080.00
2019-01-19T11:04:11.375Z,77792.00
2019-01-19T11:05:11.490Z,78368.00
2019-01-19T11:06:11.561Z,81696.00
2019-01-19T11:07:11.546Z,79872.00
2019-01-19T11:08:11.597Z,79232.00
2019-01-19T11:09:11.664Z,82080.00
2019-01-19T11:10:11.788Z,83200.00
2019-01-19T11:11:11.799Z,83520.00
2019-01-19T11:12:11.861Z,83840.00
2019-01-19T11:13:11.900Z,84224.00
2019-01-19T11:14:12.012Z,85664.00
2019-01-19T11:15:12.054Z,86304.00
2019-01-19T11:16:12.110Z,88544.00
2019-01-19T11:17:12.134Z,87456.00
2019-01-19T11:18:12.230Z,87488.00
2019-01-19T11:19:12.267Z,87744.00
2019-01-19T11:20:12.328Z,89952.00
2019-01-19T11:21:12.430Z,91936.00
2019-01-19T11:22:12.447Z,90912.00
2019-01-19T11:23:12.532Z,86624.00
2019-01-19T11:24:12.557Z,87552.00
2019-01-19T11:25:12.643Z,91648.00
2019-01-19T11:26:12.693Z,96416.00
2019-01-19T11:27:12.756Z,98368.00
2019-01-19T11:28:12.819Z,99136.00
2019-01-19T11:29:12.894Z,100512.00
2019-01-19T11:30:12.933Z,100928.00
2019-01-19T11:31:13.029Z,96672.00
2019-01-19T11:32:13.058Z,96832.00
2019-01-19T11:33:13.133Z,98304.00
2019-01-19T11:34:13.193Z,99584.00
2019-01-19T11:35:13.253Z,99392.00
2019-01-19T11:36:13.294Z,100608.00
2019-01-19T11:37:13.415Z,101792.00
2019-01-19T11:38:19.919Z,102816.00
2019-01-19T11:39:13.520Z,101472.00
2019-01-19T11:40:13.565Z,101824.00
2019-01-19T11:41:13.672Z,103168.00
2019-01-19T11:42:13.677Z,102688.00
2019-01-19T11:43:13.807Z,102048.00
2019-01-19T11:44:13.799Z,102368.00
2019-01-19T11:45:13.847Z,100640.00
2019-01-19T11:46:13.939Z,99840.00
2019-01-19T11:47:13.976Z,103296.00
2019-01-19T11:48:14.057Z,107872.00
2019-01-19T11:49:14.118Z,108064.00
2019-01-19T11:50:14.202Z,106336.00
2019-01-19T11:51:14.231Z,108448.00
2019-01-19T11:52:14.298Z,110336.00
2019-01-19T11:53:14.368Z,112992.00
2019-01-19T11:54:14.426Z,113792.00
2019-01-19T11:55:14.474Z,111968.00
2019-01-19T11:56:14.540Z,109248.00
2019-01-19T11:57:14.616Z,111840.00
2019-01-19T11:58:14.653Z,115200.00
2019-01-19T11:59:14.738Z,115968.00
2019-01-19T12:00:14.808Z,118688.00
2019-01-19T12:01:14.846Z,118784.00
2019-01-19T12:02:14.925Z,119040.00
2019-01-19T12:03:15.020Z,119680.00
2019-01-19T12:04:15.015Z,118720.00
2019-01-19T12:05:15.098Z,117216.00
2019-01-19T12:06:15.159Z,118496.00
2019-01-19T12:07:15.238Z,113376.00
2019-01-19T12:08:19.475Z,109280.00
2019-01-19T12:09:15.346Z,108480.00
2019-01-19T12:10:15.402Z,109344.00
2019-01-19T12:11:15.471Z,110944.00
2019-01-19T12:12:15.535Z,113536.00
2019-01-19T12:13:15.596Z,110880.00
2019-01-19T12:14:15.651Z,114688.00
2019-01-19T12:15:15.732Z,119392.00
2019-01-19T12:16:15.799Z,121824.00
2019-01-19T12:17:15.840Z,119776.00
2019-01-19T12:18:15.892Z,120352.00
2019-01-19T12:19:15.978Z,119424.00
2019-01-19T12:20:16.022Z,118848.00
2019-01-19T12:21:16.082Z,118464.00
2019-01-19T12:22:16.152Z,119808.00
2019-01-19T12:23:16.221Z,120544.00
2019-01-19T12:24:16.286Z,120512.00
2019-01-19T12:25:16.337Z,119520.00
2019-01-19T12:26:16.414Z,123840.00
2019-01-19T12:27:16.451Z,125728.00
2019-01-19T12:28:16.548Z,125088.00
2019-01-19T12:29:16.594Z,126752.00
2019-01-19T12:30:16.671Z,127456.00
2019-01-19T12:31:16.701Z,128768.00
2019-01-19T12:32:16.777Z,124672.00
2019-01-19T12:33:16.820Z,123040.00
2019-01-19T12:34:16.901Z,122432.00
2019-01-19T12:35:16.955Z,119328.00
2019-01-19T12:36:17.052Z,117632.00
2019-01-19T12:37:17.111Z,121152.00
2019-01-19T12:38:17.168Z,123136.00
2019-01-19T12:39:17.225Z,123136.00
2019-01-19T12:40:17.281Z,123840.00
2019-01-19T12:41:17.348Z,124992.00
2019-01-19T12:42:17.413Z,128128.00
2019-01-19T12:43:17.460Z,124480.00
2019-01-19T12:44:17.525Z,124672.00
2019-01-19T12:45:17.598Z,122496.00